Terminal Aerodrome Forecast
Issued by NWS Sterling, VA

Current Version | Previous Version | Graphics & Text | Print | Product List | Glossary On
Versions: 1 2 3 4 5 6 7 8 9 10 11 12 13 14 15 16 17 18 19 20 21 22 23 24 25 26
000
FTUS41 KLWX 171139
TAFDCA
TAF
KDCA 171139Z 1712/1812 05004KT P6SM SCT015 BKN050
     FM171300 06005KT P6SM BKN025
     FM171700 10006KT P6SM BKN050
     FM180100 07004KT P6SM SCT050
     FM181000 03004KT P6SM BKN008=

USA.gov is the U.S. government's official web portal to all federal, state and local government web resources and services.